Time;durP1;ratioP1;P1;durP2;ratioP2;P2;SDS_P1;SDS_P2;PMS_P1;PMS_P2;Temp;Humidity;BMP_temperature;BMP_pressure;BME280_temperature;BME280_humidity;BME280_pressure;Samples;Min_cycle;Max_cycle;Signal;HPM_P1;HPM_P2
2023/04/30 00:02:29;;;;;;;13.00;4.60;;;;;;;4.66;76.41;99815.87;107457;1276;67481;-69
2023/04/30 00:05:16;;;;;;;11.70;4.10;;;;;;;4.62;76.19;99814.89;107516;1276;73510;-68
2023/04/30 00:08:03;;;;;;;11.50;4.00;;;;;;;4.58;75.99;99814.59;107389;1277;58947;-68
2023/04/30 00:10:50;;;;;;;9.90;3.60;;;;;;;4.55;75.95;99817.05;107530;1276;58914;-69
2023/04/30 00:13:36;;;;;;;10.60;3.30;;;;;;;4.52;75.67;99815.30;107619;1276;71711;-67
2023/04/30 00:16:23;;;;;;;10.90;5.00;;;;;;;4.48;75.72;99818.85;107723;1276;66594;-67
2023/04/30 00:19:10;;;;;;;10.40;3.20;;;;;;;4.44;75.91;99822.58;107400;1276;71457;-69
2023/04/30 00:21:56;;;;;;;9.10;3.20;;;;;;;4.40;75.79;99824.95;107454;1276;57345;-69
2023/04/30 00:24:43;;;;;;;9.30;2.70;;;;;;;4.36;75.96;99828.65;107371;1279;59271;-68
2023/04/30 00:27:30;;;;;;;10.30;5.30;;;;;;;4.32;75.96;99831.33;106332;1279;1002500;-68
2023/04/30 00:30:17;;;;;;;8.10;2.80;;;;;;;4.28;76.12;99830.52;107111;1279;66839;-68
2023/04/30 00:33:04;;;;;;;8.50;2.70;;;;;;;4.24;76.30;99833.17;107111;1284;72506;-68
2023/04/30 00:35:51;;;;;;;9.20;3.00;;;;;;;4.22;76.46;99836.64;107059;1279;58290;-69
2023/04/30 00:38:38;;;;;;;9.00;2.70;;;;;;;4.18;76.63;99843.32;107078;1279;59124;-68
2023/04/30 00:41:26;;;;;;;8.90;2.70;;;;;;;4.15;76.86;99849.31;106933;1279;74093;-68
2023/04/30 00:44:12;;;;;;;10.90;2.90;;;;;;;4.11;76.86;99854.60;107154;1279;66839;-66
2023/04/30 00:46:59;;;;;;;9.00;2.70;;;;;;;4.08;76.86;99855.80;107148;1279;71116;-68
2023/04/30 00:49:46;;;;;;;8.50;2.50;;;;;;;4.04;76.86;99856.55;107163;1279;58842;-68
2023/04/30 00:52:32;;;;;;;9.00;2.40;;;;;;;4.02;76.81;99853.34;107073;1280;58765;-68
2023/04/30 00:55:19;;;;;;;9.10;3.00;;;;;;;4.00;77.27;99856.95;107069;1276;73065;-65
2023/04/30 00:58:07;;;;;;;7.60;2.40;;;;;;;3.97;77.17;99856.02;107492;1276;67174;-67
2023/04/30 01:00:54;;;;;;;8.00;2.20;;;;;;;3.95;77.14;99857.04;107557;1276;71806;-67
2023/04/30 01:03:41;;;;;;;10.20;2.60;;;;;;;3.92;77.17;99859.30;107578;1276;57370;-66
2023/04/30 01:06:30;;;;;;;10.40;2.50;;;;;;;3.84;77.53;99858.48;107384;1276;59150;-68
2023/04/30 01:09:19;;;;;;;9.00;2.40;;;;;;;3.85;77.57;99863.01;107713;1276;72985;-67
2023/04/30 01:12:41;;;;;;;10.20;2.50;;;;;;;3.84;77.44;99863.95;107449;1277;66457;-69
2023/04/30 01:15:50;;;;;;;7.80;2.00;;;;;;;3.81;77.82;99866.05;107771;1277;72621;-67
2023/04/30 01:18:47;;;;;;;11.40;2.50;;;;;;;3.78;77.95;99862.68;106970;1276;1003052;-68
2023/04/30 01:21:40;;;;;;;8.10;2.20;;;;;;;3.73;78.30;99861.17;107493;1276;60133;-68
2023/04/30 01:24:57;;;;;;;9.40;2.00;;;;;;;3.69;78.47;99863.31;107461;1276;73801;-67
2023/04/30 01:28:00;;;;;;;8.30;2.20;;;;;;;3.65;78.75;99866.68;107600;1276;66586;-68
2023/04/30 01:30:48;;;;;;;12.10;2.50;;;;;;;3.62;78.75;99872.64;107354;1280;71304;-68
2023/04/30 01:33:36;;;;;;;7.60;2.10;;;;;;;3.61;79.07;99879.04;107284;1279;57514;-68
2023/04/30 01:37:21;;;;;;;10.20;2.70;;;;;;;3.58;78.98;99877.54;106961;1279;60650;-68
2023/04/30 01:40:26;;;;;;;8.00;1.80;;;;;;;3.55;79.14;99878.60;106867;1286;73048;-68
2023/04/30 01:44:00;;;;;;;8.70;2.30;;;;;;;3.51;79.35;99882.51;106725;1285;68094;-68
2023/04/30 01:47:06;;;;;;;7.80;2.30;;;;;;;3.46;79.82;99890.80;106149;1292;74130;-67
2023/04/30 01:50:15;;;;;;;10.30;2.50;;;;;;;3.42;79.84;99892.95;105313;1292;1002486;-68
2023/04/30 01:53:12;;;;;;;7.80;1.90;;;;;;;3.38;80.25;99895.08;106021;1293;60300;-66
2023/04/30 01:56:04;;;;;;;9.70;2.50;;;;;;;3.35;80.28;99898.58;106003;1295;71641;-67
2023/04/30 01:58:52;;;;;;;11.10;2.70;;;;;;;3.32;80.32;99901.30;105979;1293;67787;-68
2023/04/30 02:01:39;;;;;;;11.00;2.10;;;;;;;3.32;80.58;99899.75;106116;1292;71766;-67
2023/04/30 02:04:27;;;;;;;12.00;2.80;;;;;;;3.30;80.58;99903.73;106089;1293;57445;-67
2023/04/30 02:07:36;;;;;;;11.80;2.20;;;;;;;3.27;80.78;99902.31;106140;1291;60320;-67
2023/04/30 02:10:25;;;;;;;10.80;2.30;;;;;;;3.22;80.97;99906.20;106162;1292;72962;-67
2023/04/30 02:13:12;;;;;;;7.30;1.80;;;;;;;3.18;81.46;99909.75;105443;1291;1003011;-68
2023/04/30 02:15:58;;;;;;;8.90;2.50;;;;;;;3.13;81.55;99913.64;106219;1286;72732;-67
2023/04/30 02:18:47;;;;;;;10.50;2.20;;;;;;;3.09;81.50;99912.30;106536;1286;59058;-68
2023/04/30 02:21:38;;;;;;;13.20;2.90;;;;;;;3.04;81.99;99914.29;106738;1279;58303;-68
2023/04/30 02:24:31;;;;;;;10.50;2.40;;;;;;;3.01;82.67;99916.35;107024;1284;74110;-70
2023/04/30 02:27:20;;;;;;;9.50;2.60;;;;;;;3.00;82.85;99923.07;106945;1280;66927;-68
2023/04/30 02:30:08;;;;;;;7.50;2.00;;;;;;;2.97;82.85;99924.42;106972;1280;73841;-67
2023/04/30 02:32:55;;;;;;;12.70;2.50;;;;;;;2.92;83.36;99919.95;107124;1279;57366;-69
2023/04/30 02:35:42;;;;;;;11.20;2.50;;;;;;;2.92;83.29;99926.27;107380;1279;59160;-68
2023/04/30 02:38:31;;;;;;;7.90;1.80;;;;;;;2.89;83.27;99926.59;107074;1283;71744;-68
2023/04/30 02:41:17;;;;;;;12.10;2.20;;;;;;;2.85;83.61;99929.55;107165;1283;67688;-67
2023/04/30 02:44:04;;;;;;;11.90;3.00;;;;;;;2.83;83.92;99931.94;106736;1283;71368;-67
2023/04/30 02:46:51;;;;;;;10.40;2.30;;;;;;;2.82;84.15;99936.73;106691;1283;58864;-68
2023/04/30 02:49:38;;;;;;;11.50;2.20;;;;;;;2.81;84.33;99936.05;106868;1283;60099;-66
2023/04/30 02:52:25;;;;;;;10.40;2.10;;;;;;;2.81;84.38;99938.87;106901;1279;72967;-66
2023/04/30 02:55:12;;;;;;;9.10;2.00;;;;;;;2.81;84.49;99946.25;106992;1284;67674;-69
2023/04/30 02:57:58;;;;;;;10.20;2.20;;;;;;;2.80;84.62;99949.97;107195;1280;72567;-68
2023/04/30 03:00:45;;;;;;;10.00;2.10;;;;;;;2.79;84.61;99946.16;106302;1279;1002372;-66
2023/04/30 03:03:32;;;;;;;9.40;2.20;;;;;;;2.77;84.48;99949.75;107144;1280;61438;-65
2023/04/30 03:06:19;;;;;;;12.00;2.40;;;;;;;2.75;84.81;99957.04;106388;1283;1002631;-66
2023/04/30 03:09:06;;;;;;;7.60;2.30;;;;;;;2.71;84.89;99956.66;107244;1281;67995;-68
2023/04/30 03:11:52;;;;;;;9.50;2.30;;;;;;;2.69;85.20;99956.23;107484;1277;71332;-66
2023/04/30 03:14:39;;;;;;;13.20;2.90;;;;;;;2.69;85.66;99956.27;107473;1277;57473;-67
2023/04/30 03:17:28;;;;;;;11.50;3.00;;;;;;;2.69;85.82;99956.79;107425;1277;61377;-71
2023/04/30 03:20:14;;;;;;;9.80;3.00;;;;;;;2.69;85.87;99961.49;107356;1276;71962;-68
2023/04/30 03:23:01;;;;;;;18.40;4.70;;;;;;;2.71;86.19;99961.77;107572;1276;67946;-71
2023/04/30 03:25:48;;;;;;;35.40;11.00;;;;;;;2.72;86.38;99963.11;107533;1276;72617;-69
2023/04/30 03:28:35;;;;;;;42.00;13.00;;;;;;;2.73;86.81;99967.08;107519;1276;57675;-68
2023/04/30 03:31:22;;;;;;;56.90;18.00;;;;;;;2.74;86.99;99971.98;107696;1276;60428;-69
2023/04/30 03:34:09;;;;;;;43.40;13.30;;;;;;;2.75;86.99;99973.69;106822;1276;1003001;-69
2023/04/30 03:36:56;;;;;;;33.40;10.40;;;;;;;2.75;87.62;99972.62;107385;1277;67790;-70
2023/04/30 03:39:43;;;;;;;38.30;13.50;;;;;;;2.76;87.65;99973.44;107246;1276;72626;-69
2023/04/30 03:42:29;;;;;;;28.70;10.40;;;;;;;2.78;87.87;99977.90;107555;1276;58388;-69
2023/04/30 03:45:16;;;;;;;23.40;9.00;;;;;;;2.81;87.92;99977.80;107629;1276;60152;-68
2023/04/30 03:48:03;;;;;;;14.20;3.60;;;;;;;2.81;88.21;99976.02;107312;1276;71592;-68
2023/04/30 03:50:50;;;;;;;11.80;3.10;;;;;;;2.88;88.42;99985.86;107753;1276;66699;-69
2023/04/30 03:53:36;;;;;;;10.00;2.80;;;;;;;2.93;88.34;99989.33;107691;1276;71919;-70
2023/04/30 03:56:25;;;;;;;10.90;2.60;;;;;;;2.98;88.24;99992.05;107576;1276;57785;-70
2023/04/30 03:59:13;;;;;;;10.50;2.20;;;;;;;3.01;88.10;99993.31;107517;1276;61169;-70
2023/04/30 04:02:01;;;;;;;11.60;2.60;;;;;;;3.04;88.75;99993.52;107636;1278;70626;-73
2023/04/30 04:04:48;;;;;;;8.90;2.20;;;;;;;3.08;88.49;99998.61;107553;1276;66629;-69
2023/04/30 04:07:34;;;;;;;15.20;3.20;;;;;;;3.13;88.27;100000.46;107540;1276;71121;-72
2023/04/30 04:10:20;;;;;;;9.20;2.40;;;;;;;3.18;88.49;100003.73;107741;1276;58533;-71
2023/04/30 04:13:10;;;;;;;14.80;2.60;;;;;;;3.24;88.27;100011.32;107772;1276;60417;-70
2023/04/30 04:15:59;;;;;;;8.90;2.60;;;;;;;3.31;88.16;100016.44;107503;1276;70825;-69
2023/04/30 04:18:46;;;;;;;9.90;2.70;;;;;;;3.37;88.37;100019.66;107552;1276;66449;-71
2023/04/30 04:21:33;;;;;;;12.40;2.50;;;;;;;3.45;88.19;100022.45;107372;1276;72012;-71
2023/04/30 04:24:24;;;;;;;11.30;2.70;;;;;;;3.47;88.34;100020.92;107557;1276;57501;-70
2023/04/30 04:27:11;;;;;;;12.00;2.90;;;;;;;3.56;88.16;100022.60;106718;1277;1002113;-69
2023/04/30 04:29:57;;;;;;;15.20;2.90;;;;;;;3.63;88.01;100019.79;107007;1276;1002881;-70
2023/04/30 04:32:50;;;;;;;11.70;2.50;;;;;;;3.70;87.70;100022.58;107489;1276;67668;-70
2023/04/30 04:35:37;;;;;;;8.70;2.70;;;;;;;3.79;87.58;100025.82;107499;1276;71468;-69
2023/04/30 04:38:23;;;;;;;11.50;2.80;;;;;;;3.87;87.40;100020.35;107665;1276;57296;-72
2023/04/30 04:41:10;;;;;;;11.00;2.40;;;;;;;3.91;87.09;100017.86;107524;1276;59240;-71
2023/04/30 04:44:00;;;;;;;13.80;2.70;;;;;;;4.01;86.85;100027.18;107480;1277;71646;-70
2023/04/30 04:46:52;;;;;;;12.50;3.50;;;;;;;4.10;87.04;100029.73;107267;1276;68400;-67
2023/04/30 04:49:41;;;;;;;10.90;2.40;;;;;;;4.19;86.52;100034.17;107643;1276;73778;-79
2023/04/30 04:52:29;;;;;;;12.50;3.50;;;;;;;4.29;86.64;100041.02;107424;1276;57790;-77
2023/04/30 04:55:16;;;;;;;12.60;2.90;;;;;;;4.40;86.32;100038.89;107351;1276;59331;-79
2023/04/30 04:58:03;;;;;;;9.40;2.90;;;;;;;4.51;85.90;100035.34;107507;1276;72935;-79
2023/04/30 05:00:50;;;;;;;13.50;3.40;;;;;;;4.60;85.68;100041.71;107727;1276;68502;-79
2023/04/30 05:03:37;;;;;;;15.30;2.80;;;;;;;4.69;85.53;100044.73;107500;1276;71203;-81
2023/04/30 05:06:25;;;;;;;13.60;3.10;;;;;;;4.81;85.26;100044.30;107567;1276;57323;-79
2023/04/30 05:09:12;;;;;;;9.00;2.20;;;;;;;4.92;84.99;100045.75;107505;1277;58712;-79
2023/04/30 05:12:01;;;;;;;11.00;2.70;;;;;;;5.06;84.43;100043.41;107495;1276;72983;-79
2023/04/30 05:14:50;;;;;;;11.90;2.80;;;;;;;5.21;83.69;100043.85;107689;1276;67816;-78
2023/04/30 05:17:36;;;;;;;9.50;2.70;;;;;;;5.43;82.69;100047.73;107611;1276;71370;-79
2023/04/30 05:20:25;;;;;;;10.00;2.90;;;;;;;5.76;81.55;100047.63;107516;1276;58493;-79
2023/04/30 05:23:11;;;;;;;13.90;3.30;;;;;;;6.50;78.74;100055.42;107613;1276;57919;-78
2023/04/30 05:25:58;;;;;;;12.70;2.70;;;;;;;7.72;75.04;100051.09;107656;1276;71639;-80
2023/04/30 05:31:53;;;;;;;11.70;2.70;;;;;;;10.73;62.33;100049.02;105884;1292;600023;-81
2023/04/30 05:34:41;;;;;;;11.40;3.40;;;;;;;12.00;57.86;100049.23;107684;1270;56728;-81
2023/04/30 05:37:29;;;;;;;11.20;3.00;;;;;;;13.15;53.36;100046.74;108283;1263;58784;-79
2023/04/30 05:40:18;;;;;;;11.20;2.60;;;;;;;13.94;49.48;100044.63;106322;1267;69045;-79
2023/04/30 05:43:07;;;;;;;11.40;2.80;;;;;;;14.70;47.29;100049.47;106022;1263;65740;-79
2023/04/30 05:45:55;;;;;;;11.50;3.20;;;;;;;15.70;45.19;100049.66;106093;1261;185491;-80
2023/04/30 05:48:43;;;;;;;11.50;2.70;;;;;;;16.50;42.52;100055.61;105390;1260;59606;-70
2023/04/30 05:51:33;;;;;;;9.70;2.50;;;;;;;17.09;40.70;100053.98;105781;1257;59452;-73
2023/04/30 05:54:20;;;;;;;11.50;3.10;;;;;;;17.44;39.56;100052.30;105662;1260;69346;-72
2023/04/30 05:57:08;;;;;;;10.10;2.30;;;;;;;17.40;38.38;100059.05;105618;1261;67636;-71
2023/04/30 05:59:56;;;;;;;11.00;2.50;;;;;;;17.35;37.99;100066.04;105560;1256;71045;-71
2023/04/30 06:02:46;;;;;;;10.40;2.50;;;;;;;17.57;37.87;100067.60;105616;1256;59427;-70
2023/04/30 06:05:34;;;;;;;9.80;2.40;;;;;;;17.79;37.33;100067.58;105953;1257;59298;-71
2023/04/30 06:08:22;;;;;;;10.40;2.80;;;;;;;18.11;36.80;100068.48;105961;1257;70377;-74
2023/04/30 06:11:12;;;;;;;13.20;2.80;;;;;;;18.57;36.18;100071.32;105923;1256;67934;-72
2023/04/30 06:13:59;;;;;;;8.10;2.20;;;;;;;19.06;35.23;100078.29;105692;1253;70134;-72
2023/04/30 06:16:48;;;;;;;8.90;2.40;;;;;;;19.16;34.31;100078.42;105819;1253;59318;-71
2023/04/30 06:19:37;;;;;;;12.60;2.50;;;;;;;19.38;33.79;100084.73;105910;1254;60197;-73
2023/04/30 06:22:28;;;;;;;10.50;2.10;;;;;;;19.42;33.12;100084.95;105891;1253;70075;-73
2023/04/30 06:25:16;;;;;;;11.70;2.50;;;;;;;19.80;32.77;100089.47;105863;1256;66427;-73
2023/04/30 06:28:08;;;;;;;9.80;2.20;;;;;;;20.02;32.14;100089.52;105933;1254;71476;-72
2023/04/30 06:30:57;;;;;;;9.50;2.20;;;;;;;20.39;31.93;100093.29;105873;1254;59231;-72
2023/04/30 06:33:49;;;;;;;9.70;2.50;;;;;;;20.57;30.88;100092.80;105736;1254;59347;-72
2023/04/30 06:36:39;;;;;;;10.10;2.50;;;;;;;20.73;30.57;100100.00;105730;1260;70362;-72
2023/04/30 06:39:29;;;;;;;10.30;2.50;;;;;;;20.75;30.49;100098.85;105871;1258;66611;-72
2023/04/30 06:42:20;;;;;;;8.90;2.60;;;;;;;21.19;30.00;100103.11;105317;1262;72760;-71
2023/04/30 06:45:14;;;;;;;11.20;2.40;;;;;;;21.53;29.64;100102.84;105497;1257;59252;-74
2023/04/30 06:48:02;;;;;;;10.90;2.70;;;;;;;22.24;28.91;100092.92;105573;1259;60390;-71
2023/04/30 06:50:52;;;;;;;11.10;2.60;;;;;;;22.72;27.87;100096.98;105409;1258;70119;-72
2023/04/30 06:53:40;;;;;;;8.80;2.20;;;;;;;22.95;27.26;100100.88;105451;1257;66519;-70
2023/04/30 06:56:31;;;;;;;9.40;2.60;;;;;;;22.80;27.03;100105.19;105456;1257;72498;-70
2023/04/30 06:59:19;;;;;;;10.70;2.20;;;;;;;22.74;27.23;100105.77;105495;1257;59612;-70
2023/04/30 07:02:08;;;;;;;9.90;2.00;;;;;;;22.88;26.75;100105.47;105537;1262;59417;-71
2023/04/30 07:04:57;;;;;;;9.30;2.00;;;;;;;22.97;26.38;100106.08;105559;1262;71474;-72
2023/04/30 07:07:45;;;;;;;9.40;2.00;;;;;;;23.27;26.10;100107.73;105650;1257;66945;-71
2023/04/30 07:10:33;;;;;;;10.10;2.40;;;;;;;23.73;25.63;100101.63;105600;1263;73482;-72
2023/04/30 07:13:23;;;;;;;7.60;2.20;;;;;;;24.02;24.79;100108.33;105960;1254;59227;-71
2023/04/30 07:16:11;;;;;;;9.00;2.00;;;;;;;24.15;24.31;100107.29;105736;1259;59389;-72
2023/04/30 07:19:00;;;;;;;9.40;2.30;;;;;;;24.35;24.35;100101.70;105877;1258;70286;-73
2023/04/30 07:21:54;;;;;;;9.30;2.80;;;;;;;24.34;24.06;100106.39;106342;1253;66735;-79
2023/04/30 07:24:54;;;;;;;7.90;2.00;;;;;;;24.31;23.52;100111.45;106493;1257;72475;-80
2023/04/30 07:27:52;;;;;;;9.00;2.20;;;;;;;24.58;23.67;100113.51;106018;1253;59227;-80
2023/04/30 07:30:57;;;;;;;9.80;2.40;;;;;;;24.66;23.41;100115.67;103288;1293;600839;-81
2023/04/30 07:33:54;;;;;;;8.70;2.10;;;;;;;24.19;22.99;100120.47;105634;1267;59161;-81
2023/04/30 07:36:44;;;;;;;9.40;2.20;;;;;;;24.07;22.98;100117.50;105424;1272;59377;-81
2023/04/30 07:39:36;;;;;;;9.00;2.10;;;;;;;24.36;23.39;100112.33;105970;1260;70553;-80
2023/04/30 07:42:25;;;;;;;9.00;2.30;;;;;;;24.57;22.39;100121.87;105636;1265;66438;-79
2023/04/30 07:45:17;;;;;;;8.50;2.20;;;;;;;24.50;22.52;100127.02;104853;1260;1265088;-79
2023/04/30 07:48:06;;;;;;;10.00;2.10;;;;;;;24.39;21.90;100133.91;105913;1263;59494;-80
2023/04/30 07:50:55;;;;;;;8.90;2.40;;;;;;;24.06;21.97;100135.89;105821;1265;59330;-80
2023/04/30 07:53:44;;;;;;;8.60;2.90;;;;;;;24.18;21.90;100117.78;106419;1256;70676;-79
2023/04/30 07:56:33;;;;;;;7.30;2.20;;;;;;;24.72;21.76;100133.80;106057;1257;66280;-79
2023/04/30 07:59:23;;;;;;;8.60;2.10;;;;;;;23.72;22.41;100138.85;105905;1266;72766;-79
2023/04/30 08:02:13;;;;;;;7.80;1.80;;;;;;;23.18;23.02;100141.70;105909;1257;59392;-81
2023/04/30 08:05:03;;;;;;;8.40;1.80;;;;;;;23.85;22.39;100144.14;106525;1257;60333;-80
2023/04/30 08:07:51;;;;;;;7.70;1.80;;;;;;;23.99;21.42;100146.70;107374;1257;70053;-78
2023/04/30 08:10:40;;;;;;;9.70;1.90;;;;;;;23.69;21.44;100150.67;107198;1256;66433;-78
2023/04/30 08:13:29;;;;;;;8.50;1.90;;;;;;;23.93;21.41;100146.13;106918;1257;70197;-75
2023/04/30 08:16:18;;;;;;;8.60;1.90;;;;;;;24.14;21.11;100151.08;106363;1262;59214;-80
2023/04/30 08:19:06;;;;;;;8.20;2.00;;;;;;;24.66;20.71;100153.19;105990;1256;60969;-79
2023/04/30 08:21:54;;;;;;;6.50;1.50;;;;;;;24.80;19.66;100165.73;106086;1260;70768;-79
2023/04/30 08:24:42;;;;;;;6.80;1.60;;;;;;;24.36;19.87;100157.96;105991;1257;66664;-79
2023/04/30 08:27:31;;;;;;;7.20;1.80;;;;;;;24.11;20.57;100164.98;105971;1253;72925;-78
2023/04/30 08:30:19;;;;;;;7.20;1.60;;;;;;;23.71;19.99;100178.20;106505;1253;59206;-78
2023/04/30 08:33:08;;;;;;;7.20;1.80;;;;;;;23.88;20.44;100178.05;108402;1254;59344;-80
2023/04/30 08:35:58;;;;;;;6.90;1.30;;;;;;;24.39;19.89;100174.58;109308;1252;70204;-81
2023/04/30 08:38:46;;;;;;;6.70;1.50;;;;;;;24.39;17.83;100176.38;108510;1252;66471;-78
2023/04/30 08:41:39;;;;;;;7.00;1.40;;;;;;;24.48;18.25;100182.66;108745;1253;71097;-80
2023/04/30 08:44:28;;;;;;;9.10;1.80;;;;;;;23.36;19.87;100190.83;106965;1253;59256;-78
2023/04/30 08:47:18;;;;;;;7.10;1.70;;;;;;;22.90;21.02;100187.67;106597;1257;59249;-78
2023/04/30 08:50:07;;;;;;;10.20;2.60;;;;;;;23.54;20.94;100186.09;106175;1259;71224;-79
2023/04/30 08:52:59;;;;;;;8.10;2.50;;;;;;;24.30;20.14;100185.32;106167;1259;66566;-79
2023/04/30 08:55:48;;;;;;;7.40;1.50;;;;;;;24.62;19.31;100187.95;106104;1254;70997;-80
2023/04/30 08:58:36;;;;;;;6.60;1.40;;;;;;;24.67;18.67;100195.47;106087;1253;59330;-79
2023/04/30 09:01:26;;;;;;;8.30;1.70;;;;;;;24.57;18.99;100195.36;106318;1254;60029;-80
2023/04/30 09:04:16;;;;;;;6.10;1.20;;;;;;;24.25;19.12;100192.90;106351;1253;70171;-79
2023/04/30 09:07:06;;;;;;;7.80;1.60;;;;;;;22.34;20.55;100203.99;105918;1254;67872;-77
2023/04/30 09:09:59;;;;;;;7.00;1.60;;;;;;;22.05;21.37;100203.20;106017;1256;72475;-80
2023/04/30 09:13:04;;;;;;;6.90;1.70;;;;;;;22.65;20.97;100207.47;106124;1259;59325;-69
2023/04/30 09:15:52;;;;;;;7.30;1.40;;;;;;;22.52;20.60;100204.25;105902;1254;59568;-70
2023/04/30 09:18:40;;;;;;;5.60;1.20;;;;;;;22.40;20.62;100209.85;105949;1257;70288;-70
2023/04/30 09:21:36;;;;;;;6.10;1.30;;;;;;;21.17;21.43;100220.31;106020;1253;69474;-70
2023/04/30 09:24:24;;;;;;;8.20;2.00;;;;;;;21.75;21.15;100217.34;105643;1254;72455;-71
2023/04/30 09:27:21;;;;;;;5.70;1.30;;;;;;;22.41;20.50;100216.63;105906;1253;59326;-70
2023/04/30 09:30:30;;;;;;;7.90;1.50;;;;;;;23.10;20.60;100208.86;106261;1253;59254;-70
2023/04/30 09:33:19;;;;;;;6.20;1.50;;;;;;;23.92;20.43;100212.23;105983;1253;72119;-71
2023/04/30 09:36:10;;;;;;;5.70;1.40;;;;;;;24.16;19.97;100218.77;106272;1254;66635;-71
2023/04/30 09:39:12;;;;;;;7.60;1.50;;;;;;;23.43;19.95;100225.24;105766;1254;70404;-70
2023/04/30 09:42:10;;;;;;;9.00;1.90;;;;;;;22.18;21.20;100229.91;105874;1254;59577;-73
2023/04/30 09:44:57;;;;;;;7.20;1.70;;;;;;;21.72;22.01;100228.73;105814;1253;59345;-69
2023/04/30 09:47:45;;;;;;;6.60;1.50;;;;;;;21.70;22.15;100235.70;105632;1260;69829;-69
2023/04/30 09:50:39;;;;;;;6.10;1.50;;;;;;;21.35;22.74;100241.15;105511;1260;68213;-70
2023/04/30 09:53:36;;;;;;;8.80;1.80;;;;;;;21.67;22.06;100236.38;105623;1256;72864;-72
2023/04/30 09:56:25;;;;;;;6.10;1.30;;;;;;;21.59;22.42;100243.71;105566;1259;59423;-70
2023/04/30 09:59:15;;;;;;;9.10;1.90;;;;;;;21.63;21.84;100240.45;105514;1260;59286;-71
2023/04/30 10:02:06;;;;;;;7.20;1.60;;;;;;;22.24;21.52;100238.91;105413;1261;70894;-71
2023/04/30 10:04:57;;;;;;;8.40;1.60;;;;;;;22.04;21.34;100243.19;105686;1260;67610;-68
2023/04/30 10:07:45;;;;;;;7.00;1.50;;;;;;;20.53;21.81;100248.88;105876;1257;71236;-71
2023/04/30 10:10:36;;;;;;;6.50;1.80;;;;;;;19.75;22.48;100250.02;105675;1256;59863;-69
2023/04/30 10:13:30;;;;;;;7.20;1.50;;;;;;;20.59;21.35;100240.23;105483;1256;59245;-73
2023/04/30 10:16:34;;;;;;;7.10;1.50;;;;;;;21.52;20.80;100235.98;105520;1260;70205;-70
2023/04/30 10:19:32;;;;;;;6.20;1.20;;;;;;;22.29;20.20;100234.91;105914;1258;67625;-72
2023/04/30 10:22:22;;;;;;;7.80;1.50;;;;;;;21.68;21.09;100227.11;105901;1257;71800;-71
2023/04/30 10:25:12;;;;;;;6.30;1.50;;;;;;;20.65;22.38;100233.23;105929;1253;59189;-71
2023/04/30 10:28:01;;;;;;;8.50;1.80;;;;;;;20.15;23.34;100229.64;105925;1253;59237;-71
2023/04/30 10:30:53;;;;;;;6.80;1.70;;;;;;;20.92;22.84;100236.20;105873;1253;72711;-69
2023/04/30 10:33:57;;;;;;;7.70;1.90;;;;;;;21.56;21.38;100243.59;106092;1254;65432;-69
2023/04/30 10:37:06;;;;;;;7.10;1.60;;;;;;;22.47;20.28;100246.19;105907;1252;72696;-69
2023/04/30 10:39:55;;;;;;;6.40;1.70;;;;;;;22.49;20.38;100245.80;105943;1253;59315;-71
2023/04/30 10:42:48;;;;;;;6.80;1.80;;;;;;;22.02;20.71;100243.55;105904;1257;59153;-70
2023/04/30 10:45:42;;;;;;;9.70;1.70;;;;;;;22.38;20.57;100243.40;105887;1253;70163;-70
2023/04/30 10:48:34;;;;;;;7.30;1.60;;;;;;;22.85;20.65;100231.41;105971;1254;66582;-71
2023/04/30 10:51:22;;;;;;;7.20;1.90;;;;;;;22.38;20.98;100241.17;105826;1254;71080;-73
2023/04/30 10:54:16;;;;;;;7.90;2.00;;;;;;;21.61;21.84;100245.75;105912;1254;59248;-71
2023/04/30 10:57:19;;;;;;;6.50;1.90;;;;;;;22.20;21.09;100244.39;105707;1253;59223;-70
2023/04/30 11:00:07;;;;;;;8.00;1.70;;;;;;;22.88;19.99;100238.71;106010;1254;71173;-68
2023/04/30 11:03:03;;;;;;;8.10;1.80;;;;;;;23.15;19.52;100240.12;106150;1257;69568;-72
2023/04/30 11:05:51;;;;;;;7.70;1.90;;;;;;;22.18;20.71;100250.88;105809;1254;71051;-70
2023/04/30 11:08:44;;;;;;;7.40;1.80;;;;;;;22.11;20.61;100242.95;105961;1257;59195;-69
2023/04/30 11:11:33;;;;;;;7.80;2.00;;;;;;;22.13;20.63;100243.95;106229;1253;59356;-70
2023/04/30 11:14:21;;;;;;;7.80;2.10;;;;;;;22.29;19.61;100251.71;106055;1256;70898;-69
2023/04/30 11:17:12;;;;;;;6.50;1.70;;;;;;;22.20;19.67;100250.86;105821;1254;66616;-71
2023/04/30 11:20:00;;;;;;;6.20;1.50;;;;;;;22.03;19.46;100252.92;105994;1256;72838;-72
2023/04/30 11:23:13;;;;;;;6.40;1.90;;;;;;;21.60;20.02;100249.86;106036;1252;59347;-69
2023/04/30 11:26:12;;;;;;;7.60;1.90;;;;;;;21.14;20.66;100239.54;106029;1253;59280;-68
2023/04/30 11:29:28;;;;;;;6.40;1.70;;;;;;;21.08;21.69;100244.33;106020;1253;71654;-71
2023/04/30 11:32:32;;;;;;;6.80;1.70;;;;;;;20.99;21.70;100245.92;106137;1264;67457;-72
2023/04/30 11:35:22;;;;;;;7.50;1.40;;;;;;;20.70;21.58;100254.08;107128;1257;72399;-70
2023/04/30 11:38:15;;;;;;;10.10;1.70;;;;;;;20.36;22.15;100253.66;107719;1257;58417;-70
2023/04/30 11:41:04;;;;;;;7.70;1.80;;;;;;;20.04;22.42;100255.88;107629;1257;59863;-69
2023/04/30 11:43:53;;;;;;;6.10;1.70;;;;;;;19.36;22.97;100258.86;108144;1257;69844;-70
2023/04/30 11:46:42;;;;;;;7.60;1.70;;;;;;;18.61;24.02;100254.52;106675;1259;66384;-67
2023/04/30 11:49:32;;;;;;;6.40;1.90;;;;;;;18.25;24.85;100263.52;105833;1259;71423;-71
2023/04/30 11:52:20;;;;;;;7.60;2.10;;;;;;;17.86;24.86;100264.92;105294;1260;59333;-71
2023/04/30 11:55:21;;;;;;;8.50;1.90;;;;;;;17.49;24.88;100265.76;105491;1259;62316;-72
2023/04/30 11:58:09;;;;;;;6.90;1.90;;;;;;;16.92;25.89;100260.86;105428;1260;70386;-69
2023/04/30 12:01:00;;;;;;;7.80;1.60;;;;;;;16.35;26.37;100263.91;105510;1260;68357;-69
2023/04/30 12:03:51;;;;;;;8.20;1.90;;;;;;;15.69;27.23;100274.39;105583;1257;74179;-69
2023/04/30 12:06:41;;;;;;;7.60;1.90;;;;;;;15.13;27.33;100268.75;105709;1257;59331;-69
2023/04/30 12:09:29;;;;;;;6.50;1.90;;;;;;;14.65;28.30;100269.95;105611;1259;61751;-68
2023/04/30 12:12:27;;;;;;;8.50;1.90;;;;;;;14.28;29.24;100276.16;105876;1257;70027;-67
2023/04/30 12:15:25;;;;;;;8.90;2.40;;;;;;;13.82;30.66;100286.10;105465;1259;66817;-69
2023/04/30 12:18:14;;;;;;;8.10;2.40;;;;;;;13.48;31.72;100284.77;105564;1259;72781;-69
2023/04/30 12:21:03;;;;;;;8.00;2.50;;;;;;;13.22;32.92;100284.61;105499;1254;59205;-68
2023/04/30 12:23:52;;;;;;;6.40;1.80;;;;;;;13.13;32.69;100280.23;105905;1253;60974;-67
2023/04/30 12:26:41;;;;;;;6.40;1.80;;;;;;;13.07;32.64;100285.73;106066;1256;72038;-67
2023/04/30 12:29:29;;;;;;;7.20;1.90;;;;;;;12.94;32.97;100285.05;105897;1257;66769;-68
2023/04/30 12:32:18;;;;;;;7.50;1.70;;;;;;;12.91;33.21;100289.91;106539;1259;72470;-69
2023/04/30 12:35:12;;;;;;;8.60;2.20;;;;;;;12.77;33.51;100281.43;105702;1259;59340;-68
2023/04/30 12:38:04;;;;;;;9.70;2.30;;;;;;;12.64;34.09;100288.95;105821;1261;59740;-69
2023/04/30 12:40:52;;;;;;;8.20;2.40;;;;;;;12.48;33.93;100290.98;105500;1257;72003;-68
2023/04/30 12:43:41;;;;;;;6.90;2.20;;;;;;;12.45;34.45;100295.10;105512;1257;69983;-68
2023/04/30 12:46:29;;;;;;;7.30;2.50;;;;;;;12.34;34.81;100289.27;105513;1257;71275;-70
2023/04/30 12:49:29;;;;;;;9.00;2.90;;;;;;;12.30;35.16;100284.95;105692;1256;59308;-70
2023/04/30 12:52:23;;;;;;;7.60;1.80;;;;;;;12.31;35.11;100286.65;105399;1262;59860;-68
2023/04/30 12:55:19;;;;;;;6.90;2.00;;;;;;;12.34;34.43;100288.77;105770;1255;71184;-67
2023/04/30 12:58:12;;;;;;;7.40;2.00;;;;;;;12.41;34.89;100292.45;105773;1257;68073;-71
2023/04/30 13:01:00;;;;;;;8.00;2.20;;;;;;;12.45;34.85;100291.17;105734;1259;73108;-70
2023/04/30 13:03:50;;;;;;;6.40;2.10;;;;;;;12.41;35.03;100295.98;105507;1262;59215;-69
2023/04/30 13:06:38;;;;;;;9.00;2.40;;;;;;;12.40;35.80;100296.77;105498;1262;59345;-70
2023/04/30 13:09:26;;;;;;;9.40;2.30;;;;;;;12.53;36.37;100295.71;105410;1256;70724;-68
2023/04/30 13:12:18;;;;;;;7.00;2.10;;;;;;;12.59;35.86;100305.21;105551;1256;66661;-68